Hovedside
METAR-TAF:

METAR-TAF

Lufthavner :

Yakima, Washington, USA

breddegrad: 46-33-51N, lengdegrad: 120-32-01W, høyde over havet: 333 m

Gjeldene værobservasjon

Denne rapporten ble laget for 34 minutter siden, klokken 16:53 UTC
Vind 5 kt fra Vest-nordvest
Temperatur 10°C
Luftfuktighet 46%
Trykk 1027 hPa
Sikt: 16.1 km
Skyfri himmel

METAR: KYKM 171653Z 29005KT 10SM CLR 10/M01 A3033 RMK AO2 SLP278 T01001006

Tid: 10:27 (17:27 UTC)

Varsel

Denne rapporten ble laget for 6 timer og 7 minutter siden, klokken 11:20 UTC
Varsel gyldig fra 17. klokken 12 UTC til 18. klokken 12 UTC
Vind 7 kt fra Vest
Sikt: 10 km
Skyfri himmel
Fra 17. klokken 1900 UTC
Vind 5 kt fra Sørøst
Sikt: 10 km
Skyfri himmel
Fra 18. klokken 0300 UTC
Vind 7 kt fra Vest
Sikt: 10 km
Skyfri himmel

TAF: KYKM 171120Z 1712/1812 27007KT P6SM SKC FM171900 13005KT P6SM SKC FM180300 27007KT P6SM SKC

Værobservasjoner og værvarsel for over 4000 flyplasser (METAR- og TAF-rapporter).

Tilgjengelige stasjoner er representert av de røde og gule prikkene på kartet.

Hold musepekeren over prikken for å se navnet på stasjonen.

Klikk så for å se værobservasjoner og -varsler.

For å forandre kartet kan du klikke på den grønne knappen med svart kryss for å zoome inn, på den grønne knappen med strek for å zoome ut, eller på de grønne pilene for å se tilstøtende kart.


METAR-TAF: